Time;durP1;ratioP1;P1;durP2;ratioP2;P2;SDS_P1;SDS_P2;PMS_P1;PMS_P2;Temp;Humidity;BMP_temperature;BMP_pressure;BME280_temperature;BME280_humidity;BME280_pressure;Samples;Min_cycle;Max_cycle;Signal;HPM_P1;HPM_P2
2021/06/02 00:00:16;;;;;;;18.17;9.20;;;11.50;99.90;;;;;;4378231;32;20202;-79
2021/06/02 00:02:55;;;;;;;17.37;9.43;;;11.50;99.90;;;;;;4377415;32;20158;-79
2021/06/02 00:05:23;;;;;;;16.30;9.03;;;11.40;99.90;;;;;;4378429;32;20179;-79
2021/06/02 00:07:50;;;;;;;16.67;8.53;;;11.40;99.90;;;;;;4377715;32;20148;-78
2021/06/02 00:10:19;;;;;;;14.70;8.60;;;11.40;99.90;;;;;;4377677;32;20155;-78
2021/06/02 00:12:47;;;;;;;16.57;8.57;;;11.40;99.90;;;;;;4377723;32;20140;-79
2021/06/02 00:15:14;;;;;;;16.50;8.90;;;11.30;99.90;;;;;;4377562;32;20175;-78
2021/06/02 00:17:41;;;;;;;18.17;8.83;;;11.30;99.90;;;;;;4411736;32;20425;-78
2021/06/02 00:20:10;;;;;;;17.17;9.63;;;11.20;99.90;;;;;;4441987;32;20188;-78
2021/06/02 00:22:37;;;;;;;17.17;9.30;;;11.20;99.90;;;;;;4440515;32;20368;-78
2021/06/02 00:25:06;;;;;;;19.27;9.63;;;11.20;99.90;;;;;;4440907;32;20503;-78
2021/06/02 00:27:35;;;;;;;19.17;9.57;;;11.10;99.90;;;;;;4442075;32;20135;-79
2021/06/02 00:30:06;;;;;;;17.63;9.47;;;11.20;99.90;;;;;;4440521;32;20166;-78
2021/06/02 00:32:34;;;;;;;16.43;9.20;;;11.20;99.90;;;;;;4441912;32;20189;-78
2021/06/02 00:35:03;;;;;;;15.97;9.60;;;11.20;99.90;;;;;;4441893;32;20158;-78
2021/06/02 00:37:30;;;;;;;18.70;9.90;;;11.10;99.90;;;;;;4440322;32;20143;-78
2021/06/02 00:39:58;;;;;;;15.70;8.93;;;11.10;99.90;;;;;;4440239;32;20402;-78
2021/06/02 00:42:29;;;;;;;16.40;9.10;;;11.00;99.90;;;;;;4440366;32;20188;-78
2021/06/02 00:44:57;;;;;;;14.63;8.90;;;11.00;99.90;;;;;;4441672;32;20176;-78
2021/06/02 00:47:24;;;;;;;13.97;8.50;;;11.00;99.90;;;;;;4440214;32;20138;-78
2021/06/02 00:49:51;;;;;;;15.10;8.70;;;11.00;99.90;;;;;;4441577;32;20381;-78
2021/06/02 00:52:18;;;;;;;15.70;8.37;;;11.00;99.90;;;;;;4440068;32;20460;-79
2021/06/02 00:54:45;;;;;;;13.97;8.27;;;11.00;99.90;;;;;;4440456;32;20424;-77
2021/06/02 00:57:17;;;;;;;14.10;7.83;;;11.00;99.90;;;;;;4441549;32;20530;-77
2021/06/02 01:00:03;;;;;;;12.37;7.50;;;11.10;99.90;;;;;;4440065;32;20139;-78
2021/06/02 01:02:33;;;;;;;15.63;7.60;;;11.10;99.90;;;;;;4441926;32;20202;-78
2021/06/02 01:05:00;;;;;;;13.60;7.20;;;11.10;99.90;;;;;;4440024;32;20430;-79
2021/06/02 01:07:27;;;;;;;13.07;7.47;;;11.10;99.90;;;;;;4440755;32;20403;-79
2021/06/02 01:09:56;;;;;;;15.47;7.67;;;11.10;99.90;;;;;;4440568;32;20520;-79
2021/06/02 01:12:29;;;;;;;13.50;7.80;;;11.10;99.90;;;;;;4439957;32;20160;-79
2021/06/02 01:14:57;;;;;;;13.37;8.23;;;11.20;99.90;;;;;;4439687;32;20151;-79
2021/06/02 01:17:29;;;;;;;13.23;7.47;;;11.20;99.90;;;;;;4439895;32;20468;-79
2021/06/02 01:19:59;;;;;;;17.50;8.67;;;11.30;99.90;;;;;;4439776;32;20142;-79
2021/06/02 01:22:33;;;;;;;17.67;8.10;;;11.30;99.90;;;;;;4439747;32;20464;-79
2021/06/02 01:25:19;;;;;;;20.13;8.17;;;11.30;99.90;;;;;;4440360;32;20146;-79
2021/06/02 01:27:46;;;;;;;15.50;8.03;;;11.30;99.90;;;;;;4441718;32;20483;-78
2021/06/02 01:30:20;;;;;;;15.63;7.70;;;11.30;99.90;;;;;;4441190;32;20187;-79
2021/06/02 01:32:56;;;;;;;18.70;7.97;;;11.30;99.90;;;;;;4441219;32;20142;-79
2021/06/02 01:35:44;;;;;;;17.13;9.17;;;11.30;99.90;;;;;;4440678;32;20146;-78
2021/06/02 01:38:48;;;;;;;18.47;8.67;;;11.40;99.90;;;;;;4439635;32;20185;-78
2021/06/02 01:41:59;;;;;;;20.50;8.43;;;11.40;99.90;;;;;;4439638;32;20383;-78
2021/06/02 01:44:47;;;;;;;22.90;8.97;;;11.40;99.90;;;;;;4376624;32;20205;-79
2021/06/02 01:47:41;;;;;;;20.77;8.90;;;11.30;99.90;;;;;;4378514;32;20204;-79
2021/06/02 01:50:44;;;;;;;15.70;9.07;;;11.20;99.90;;;;;;4378505;32;20490;-79
2021/06/02 01:53:41;;;;;;;14.20;7.80;;;11.30;99.90;;;;;;4378486;32;20135;-79
2021/06/02 01:56:35;;;;;;;16.27;8.77;;;11.30;99.90;;;;;;4364373;32;20166;-79
2021/06/02 01:59:29;;;;;;;14.37;8.13;;;11.10;99.90;;;;;;4378113;32;20166;-79
2021/06/02 02:02:14;;;;;;;12.63;8.13;;;11.20;99.90;;;;;;4376484;32;20155;-78
2021/06/02 02:05:01;;;;;;;13.60;8.10;;;11.10;99.90;;;;;;4378377;32;20481;-78
2021/06/02 02:07:43;;;;;;;17.70;8.40;;;11.10;99.90;;;;;;4376689;32;20158;-78
2021/06/02 02:10:40;;;;;;;15.77;8.30;;;11.00;99.90;;;;;;4377102;32;20472;-79
2021/06/02 02:13:45;;;;;;;16.90;8.60;;;11.00;99.90;;;;;;4375827;32;20403;-79
2021/06/02 02:16:21;;;;;;;15.43;8.50;;;10.90;99.90;;;;;;4431704;32;20527;-79
2021/06/02 02:19:12;;;;;;;16.53;7.80;;;10.90;99.90;;;;;;4439344;32;20384;-79
2021/06/02 02:21:56;;;;;;;16.53;8.77;;;10.80;99.90;;;;;;4440791;32;20170;-79
2021/06/02 02:24:54;;;;;;;15.87;8.17;;;10.80;99.90;;;;;;4438815;32;20246;-79
2021/06/02 02:27:30;;;;;;;14.03;8.00;;;10.70;99.90;;;;;;4442747;32;20165;-79
2021/06/02 02:30:06;;;;;;;14.13;8.80;;;10.70;99.90;;;;;;4442298;32;20138;-79
2021/06/02 02:33:01;;;;;;;16.17;8.20;;;10.70;99.90;;;;;;4443552;32;20200;-79
2021/06/02 02:35:37;;;;;;;13.40;7.87;;;10.60;99.90;;;;;;4442336;32;20180;-79
2021/06/02 02:38:24;;;;;;;13.37;8.27;;;10.60;99.90;;;;;;4442387;32;20157;-79
2021/06/02 02:41:18;;;;;;;14.20;8.00;;;10.60;99.90;;;;;;4443685;32;20150;-78
2021/06/02 02:43:56;;;;;;;15.27;8.27;;;10.70;99.90;;;;;;4442197;32;20188;-78
2021/06/02 02:46:37;;;;;;;13.80;7.67;;;10.70;99.90;;;;;;4442179;32;20227;-79
2021/06/02 02:49:29;;;;;;;17.47;8.20;;;10.80;99.90;;;;;;4442130;32;20160;-79
2021/06/02 02:52:18;;;;;;;14.97;7.90;;;10.80;99.90;;;;;;4441898;32;20138;-79
2021/06/02 02:54:54;;;;;;;18.67;8.83;;;10.90;99.90;;;;;;4441793;32;20204;-78
2021/06/02 02:57:44;;;;;;;16.83;7.93;;;10.90;99.90;;;;;;4441937;32;20173;-79
2021/06/02 03:00:15;;;;;;;15.87;8.40;;;11.00;99.90;;;;;;4441851;32;20515;-78
2021/06/02 03:02:52;;;;;;;16.03;8.07;;;11.00;99.90;;;;;;4441890;32;20206;-78
2021/06/02 03:05:57;;;;;;;16.23;7.80;;;11.10;99.90;;;;;;4441819;32;20395;-78
2021/06/02 03:08:50;;;;;;;13.90;7.53;;;11.10;99.90;;;;;;4441787;32;20446;-78
2021/06/02 03:11:25;;;;;;;19.20;7.40;;;11.20;99.90;;;;;;4443251;32;20138;-78
2021/06/02 03:14:05;;;;;;;15.20;7.83;;;11.30;99.90;;;;;;4442529;32;20460;-78
2021/06/02 03:16:37;;;;;;;14.73;7.60;;;11.30;99.90;;;;;;4442181;32;20226;-78
2021/06/02 03:19:17;;;;;;;13.43;7.40;;;11.40;99.90;;;;;;4442739;32;20146;-79
2021/06/02 03:21:59;;;;;;;14.77;7.43;;;11.40;99.90;;;;;;4441589;32;20150;-79
2021/06/02 03:24:29;;;;;;;14.17;7.40;;;11.50;99.90;;;;;;4442867;32;20134;-78
2021/06/02 03:27:29;;;;;;;12.93;7.27;;;11.60;99.90;;;;;;4442402;32;20188;-78
2021/06/02 03:30:14;;;;;;;15.30;7.20;;;11.60;99.90;;;;;;4443040;32;20139;-78
2021/06/02 03:33:07;;;;;;;11.90;6.90;;;11.70;99.90;;;;;;4443190;32;20138;-79
2021/06/02 03:35:41;;;;;;;11.60;6.60;;;11.80;99.90;;;;;;4442190;32;20177;-78
2021/06/02 03:38:18;;;;;;;10.70;6.97;;;11.80;99.90;;;;;;4442642;32;20406;-78
2021/06/02 03:41:08;;;;;;;12.00;7.03;;;11.90;99.90;;;;;;4442291;32;20485;-77
2021/06/02 03:43:36;;;;;;;13.40;7.50;;;12.00;99.90;;;;;;4441582;32;20157;-77
2021/06/02 03:46:44;;;;;;;14.83;6.97;;;12.20;99.90;;;;;;4441444;32;20233;-78
2021/06/02 03:49:34;;;;;;;11.73;6.63;;;12.30;99.90;;;;;;4380385;32;20187;-74
2021/06/02 03:52:07;;;;;;;15.53;6.53;;;12.40;99.90;;;;;;4378349;32;20497;-77
2021/06/02 03:54:56;;;;;;;11.80;6.63;;;12.50;99.90;;;;;;4377387;32;20224;-77
2021/06/02 03:57:34;;;;;;;12.60;7.40;;;12.50;99.90;;;;;;4379640;32;20182;-79
2021/06/02 04:00:09;;;;;;;15.53;6.87;;;12.50;99.90;;;;;;4379120;32;20159;-78
2021/06/02 04:03:06;;;;;;;13.07;6.90;;;12.60;99.90;;;;;;4377965;32;20162;-79
2021/06/02 04:05:41;;;;;;;14.53;6.80;;;12.60;99.90;;;;;;4379035;32;20213;-79
2021/06/02 04:08:27;;;;;;;14.20;7.37;;;12.60;99.90;;;;;;4379975;32;20158;-79
2021/06/02 04:11:09;;;;;;;14.07;6.83;;;12.60;99.90;;;;;;4379664;32;20163;-80
2021/06/02 04:13:50;;;;;;;15.07;7.23;;;12.60;99.90;;;;;;4378057;32;20214;-78
2021/06/02 04:16:22;;;;;;;13.70;7.07;;;12.70;99.90;;;;;;4379476;32;20203;-78
2021/06/02 04:18:51;;;;;;;13.60;7.23;;;12.70;99.90;;;;;;4380625;32;20524;-79
2021/06/02 04:21:22;;;;;;;11.27;6.90;;;12.70;99.90;;;;;;4440673;32;20151;-80
2021/06/02 04:23:51;;;;;;;14.17;6.80;;;12.80;99.90;;;;;;4440746;32;20151;-79
2021/06/02 04:26:20;;;;;;;12.30;6.50;;;12.90;99.90;;;;;;4440597;32;20152;-79
2021/06/02 04:28:47;;;;;;;12.63;6.80;;;13.00;99.90;;;;;;4440571;32;20158;-81
2021/06/02 04:31:15;;;;;;;13.27;6.73;;;12.90;99.90;;;;;;4441989;32;20211;-77
2021/06/02 04:33:43;;;;;;;18.13;6.43;;;12.90;99.90;;;;;;4440505;32;20135;-78
2021/06/02 04:36:14;;;;;;;10.07;5.57;;;13.00;99.90;;;;;;4440399;32;20138;-78
2021/06/02 04:38:41;;;;;;;12.50;6.50;;;13.10;99.90;;;;;;4441449;32;20410;-79
2021/06/02 04:41:10;;;;;;;11.97;5.90;;;13.30;99.90;;;;;;4440815;32;20143;-78
2021/06/02 04:43:39;;;;;;;11.17;6.17;;;13.40;99.90;;;;;;4440420;32;20166;-78
2021/06/02 04:46:08;;;;;;;12.93;5.70;;;13.50;99.90;;;;;;4439353;32;20142;-80
2021/06/02 04:48:36;;;;;;;10.90;5.33;;;13.60;99.90;;;;;;4441628;32;20146;-79
2021/06/02 04:51:40;;;;;;;9.47;5.13;;;13.70;99.90;;;;;;4440140;32;20231;-80
2021/06/02 04:55:02;;;;;;;8.80;5.10;;;13.70;99.90;;;;;;4440116;32;20491;-80
2021/06/02 04:57:51;;;;;;;11.37;5.20;;;13.80;99.90;;;;;;4377208;32;20182;-80
2021/06/02 05:00:29;;;;;;;10.77;5.20;;;13.90;99.90;;;;;;4378974;32;20160;-80
2021/06/02 05:03:17;;;;;;;7.30;4.80;;;13.90;99.90;;;;;;4377235;32;20159;-80
2021/06/02 05:06:21;;;;;;;7.73;5.17;;;14.00;99.90;;;;;;4378595;32;20180;-80
2021/06/02 05:09:04;;;;;;;7.67;4.60;;;14.10;99.90;;;;;;4386081;32;20159;-80
2021/06/02 05:11:52;;;;;;;9.27;5.23;;;14.20;99.90;;;;;;4370202;32;20183;-80
2021/06/02 05:14:56;;;;;;;11.07;5.40;;;14.30;99.90;;;;;;4382223;32;20183;-81
2021/06/02 05:17:58;;;;;;;10.17;5.60;;;14.30;99.90;;;;;;4378739;32;20143;-81
2021/06/02 05:24:01;;;;;;;8.17;5.10;;;14.40;99.90;;;;;;4377887;32;20147;-81
2021/06/02 05:26:52;;;;;;;11.83;4.93;;;14.40;99.90;;;;;;4376664;32;20501;-81
2021/06/02 05:29:31;;;;;;;9.77;5.50;;;14.40;99.90;;;;;;4440276;32;20188;-82
2021/06/02 05:32:16;;;;;;;11.70;5.13;;;14.40;99.90;;;;;;4440478;32;20142;-82
2021/06/02 05:34:58;;;;;;;9.13;4.97;;;14.50;99.90;;;;;;4440923;32;20488;-82
2021/06/02 05:37:46;;;;;;;7.37;4.33;;;14.70;99.90;;;;;;4439726;32;20174;-82
2021/06/02 05:40:39;;;;;;;8.90;4.27;;;14.80;99.90;;;;;;4439698;32;20207;-82
2021/06/02 05:43:47;;;;;;;7.70;4.10;;;14.90;99.90;;;;;;4440334;32;20151;-81
2021/06/02 05:46:33;;;;;;;10.37;3.60;;;15.20;99.50;;;;;;4439599;32;20186;-81
2021/06/02 05:49:22;;;;;;;7.13;3.60;;;15.20;97.10;;;;;;4439439;32;20139;-81
2021/06/02 05:51:58;;;;;;;7.47;3.93;;;15.40;96.90;;;;;;4441086;32;20169;-81
2021/06/02 05:54:46;;;;;;;8.97;3.47;;;15.50;95.70;;;;;;4440209;32;20484;-81
2021/06/02 05:57:50;;;;;;;10.00;4.57;;;15.60;95.60;;;;;;4439327;32;20507;-81
2021/06/02 06:00:58;;;;;;;6.03;3.67;;;15.80;95.60;;;;;;4439721;32;20208;-79
2021/06/02 06:03:46;;;;;;;11.00;3.83;;;16.00;95.30;;;;;;4442684;32;20130;-80
2021/06/02 06:06:45;;;;;;;7.37;3.90;;;16.20;94.90;;;;;;4444044;32;20466;-80
2021/06/02 06:09:42;;;;;;;8.73;3.37;;;16.30;94.40;;;;;;4439694;32;20150;-80
2021/06/02 06:12:37;;;;;;;8.53;3.80;;;16.40;93.80;;;;;;4439018;32;20163;-81
2021/06/02 06:15:26;;;;;;;9.47;2.97;;;16.50;93.70;;;;;;4440563;32;20174;-80
2021/06/02 06:18:21;;;;;;;5.50;3.47;;;16.50;93.10;;;;;;4440430;32;20225;-80
2021/06/02 06:21:07;;;;;;;6.87;3.53;;;16.70;92.70;;;;;;4439214;32;20195;-79
2021/06/02 06:23:55;;;;;;;6.57;3.33;;;16.80;92.10;;;;;;4439821;32;20169;-80
2021/06/02 06:26:37;;;;;;;6.63;3.20;;;16.90;91.70;;;;;;4442728;32;20165;-80
2021/06/02 06:29:14;;;;;;;8.27;3.20;;;17.10;91.90;;;;;;4445497;32;20150;-80
2021/06/02 06:31:44;;;;;;;5.13;3.47;;;17.30;91.00;;;;;;4447688;32;20164;-80
2021/06/02 06:34:16;;;;;;;6.40;3.50;;;17.30;89.10;;;;;;4440682;32;20155;-80
2021/06/02 06:36:45;;;;;;;4.73;3.20;;;17.30;88.20;;;;;;4443198;32;20147;-80
2021/06/02 06:39:36;;;;;;;6.03;3.30;;;17.40;89.10;;;;;;4442252;32;20177;-80
2021/06/02 06:42:05;;;;;;;6.07;3.10;;;17.60;89.30;;;;;;4441533;32;20193;-79
2021/06/02 06:44:33;;;;;;;7.50;3.10;;;17.80;86.80;;;;;;4441896;32;20165;-79
2021/06/02 06:47:02;;;;;;;7.70;3.10;;;18.00;87.10;;;;;;4442138;32;20143;-79
2021/06/02 06:49:31;;;;;;;8.47;3.07;;;18.20;85.60;;;;;;4441863;32;20172;-80
2021/06/02 06:52:02;;;;;;;6.23;2.80;;;18.50;80.10;;;;;;4443523;32;20494;-80
2021/06/02 06:54:31;;;;;;;9.33;3.03;;;18.60;82.70;;;;;;4442448;32;20162;-79
2021/06/02 06:56:59;;;;;;;5.20;2.97;;;18.90;83.50;;;;;;4442033;32;20143;-80
2021/06/02 06:59:27;;;;;;;5.53;3.40;;;19.10;80.60;;;;;;4442226;32;20150;-81
2021/06/02 07:01:54;;;;;;;7.30;3.03;;;19.10;79.50;;;;;;4441781;32;20170;-80
2021/06/02 07:04:21;;;;;;;6.87;3.40;;;18.90;79.70;;;;;;4443210;32;20446;-79
2021/06/02 07:06:49;;;;;;;4.80;2.90;;;19.10;80.30;;;;;;4441892;32;20203;-81
2021/06/02 07:09:16;;;;;;;3.93;2.70;;;19.00;78.50;;;;;;4440922;32;20192;-80
2021/06/02 07:11:44;;;;;;;8.73;2.80;;;18.90;76.00;;;;;;4441745;32;20188;-79
2021/06/02 07:14:17;;;;;;;4.73;3.00;;;18.80;76.40;;;;;;4441670;32;20166;-82
2021/06/02 07:16:44;;;;;;;5.33;3.00;;;18.80;77.70;;;;;;4441890;32;20224;-81
2021/06/02 07:19:13;;;;;;;7.40;2.80;;;19.00;77.10;;;;;;4443392;32;20503;-82
2021/06/02 07:21:43;;;;;;;7.47;2.90;;;19.00;76.40;;;;;;4441663;32;20149;-81
2021/06/02 07:24:11;;;;;;;6.17;3.00;;;19.20;76.90;;;;;;4441571;32;20185;-82
2021/06/02 07:26:41;;;;;;;7.67;2.80;;;19.20;74.20;;;;;;4441814;32;20191;-82
2021/06/02 07:29:21;;;;;;;6.23;2.97;;;19.30;74.60;;;;;;4443508;32;20146;-81
2021/06/02 07:31:48;;;;;;;8.90;2.73;;;19.30;73.30;;;;;;4441650;32;20168;-83
2021/06/02 07:34:16;;;;;;;6.20;3.07;;;19.40;71.50;;;;;;4442666;32;20192;-80
2021/06/02 07:36:43;;;;;;;7.10;2.73;;;19.30;75.40;;;;;;4441570;32;20147;-82
2021/06/02 07:39:10;;;;;;;6.93;2.90;;;19.30;73.80;;;;;;4449496;32;20480;-82
2021/06/02 07:41:37;;;;;;;3.93;2.80;;;19.30;69.30;;;;;;4456926;32;20142;-84
2021/06/02 07:44:04;;;;;;;3.93;2.37;;;19.30;67.70;;;;;;4457193;32;20216;-80
2021/06/02 07:46:35;;;;;;;4.27;2.40;;;19.10;68.80;;;;;;4450582;32;20217;-83
2021/06/02 07:49:06;;;;;;;2.77;2.40;;;19.30;68.00;;;;;;4439934;32;20242;-82
2021/06/02 07:51:34;;;;;;;4.17;2.40;;;19.30;67.60;;;;;;4441309;32;20181;-82
2021/06/02 07:54:02;;;;;;;3.57;2.40;;;19.40;68.80;;;;;;4441557;32;20496;-82
2021/06/02 07:56:29;;;;;;;3.73;2.27;;;19.50;67.50;;;;;;4442739;32;20425;-81
2021/06/02 07:58:56;;;;;;;4.27;2.30;;;19.50;67.70;;;;;;4442742;32;20463;-82
2021/06/02 08:01:22;;;;;;;4.17;2.43;;;19.70;65.80;;;;;;4441599;32;20146;-81
2021/06/02 08:03:49;;;;;;;5.03;1.97;;;19.90;64.80;;;;;;4443129;32;20138;-82
2021/06/02 08:06:16;;;;;;;4.60;2.30;;;19.90;61.50;;;;;;4442694;32;20146;-80
2021/06/02 08:08:43;;;;;;;3.27;1.87;;;20.00;59.80;;;;;;4441282;32;20214;-80
2021/06/02 08:11:10;;;;;;;3.50;2.00;;;20.00;60.20;;;;;;4441988;32;20142;-81
2021/06/02 08:13:37;;;;;;;3.13;2.00;;;20.10;60.00;;;;;;4440907;32;20196;-81
2021/06/02 08:16:04;;;;;;;3.90;1.90;;;20.30;59.20;;;;;;4442419;32;20184;-81
2021/06/02 08:18:32;;;;;;;3.37;2.10;;;20.40;58.10;;;;;;4440827;32;20146;-82
2021/06/02 08:20:59;;;;;;;3.40;1.90;;;20.60;57.00;;;;;;4442293;32;20188;-81
2021/06/02 08:23:26;;;;;;;5.07;1.97;;;21.40;55.90;;;;;;4441492;32;20194;-81
2021/06/02 08:25:53;;;;;;;4.57;1.90;;;21.80;55.10;;;;;;4440219;32;20134;-81
2021/06/02 08:28:20;;;;;;;3.17;2.00;;;22.10;54.30;;;;;;4441320;32;20209;-81
2021/06/02 08:30:48;;;;;;;3.87;2.03;;;22.10;51.40;;;;;;4440830;32;20150;-80
2021/06/02 08:33:15;;;;;;;4.30;2.00;;;22.10;50.50;;;;;;4440669;32;20214;-80
2021/06/02 08:35:42;;;;;;;3.70;1.87;;;22.00;51.00;;;;;;4440637;32;20139;-80
2021/06/02 08:38:10;;;;;;;2.87;2.00;;;22.40;51.40;;;;;;4441218;32;20165;-80
2021/06/02 08:40:38;;;;;;;2.47;1.80;;;22.40;51.10;;;;;;4440578;32;20138;-80
2021/06/02 08:43:04;;;;;;;4.18;2.20;;;22.50;51.30;;;;;;4440555;32;20173;-80
2021/06/02 08:45:32;;;;;;;5.65;2.30;;;22.50;52.60;;;;;;4440437;32;20139;-80
2021/06/02 08:48:00;;;;;;;2.33;1.65;;;22.40;49.30;;;;;;4440821;32;20507;-79
2021/06/02 08:50:27;;;;;;;5.20;1.90;;;22.50;51.70;;;;;;4441934;32;20161;-79
2021/06/02 08:52:59;;;;;;;2.67;1.92;;;22.70;46.70;;;;;;4441941;32;20147;-80
2021/06/02 08:55:27;;;;;;;4.70;2.03;;;22.80;49.00;;;;;;4440314;32;20269;-81
2021/06/02 08:57:56;;;;;;;4.28;2.30;;;23.10;47.70;;;;;;4440354;32;20134;-79
2021/06/02 09:00:26;;;;;;;8.27;2.25;;;23.40;47.90;;;;;;4440726;32;20176;-81
2021/06/02 09:02:54;;;;;;;4.32;2.10;;;24.10;47.50;;;;;;4441702;32;20173;-82
2021/06/02 09:05:25;;;;;;;7.57;2.12;;;24.40;43.70;;;;;;4442543;32;20181;-82
2021/06/02 09:07:54;;;;;;;3.78;1.90;;;24.90;42.70;;;;;;4442428;32;20446;-80
2021/06/02 09:10:24;;;;;;;4.53;2.22;;;24.90;44.00;;;;;;4441836;32;20187;-79
2021/06/02 09:12:58;;;;;;;5.68;2.22;;;24.60;46.40;;;;;;4441794;32;20142;-79
2021/06/02 09:15:32;;;;;;;5.18;2.22;;;24.00;43.40;;;;;;4440585;32;20161;-79
2021/06/02 09:18:04;;;;;;;4.15;2.00;;;24.00;44.10;;;;;;4441238;32;20357;-81
2021/06/02 09:20:41;;;;;;;3.12;1.90;;;24.20;45.30;;;;;;4444067;32;20142;-85
2021/06/02 09:23:33;;;;;;;2.95;2.10;;;24.60;45.60;;;;;;4442105;32;20499;-79
2021/06/02 09:26:18;;;;;;;3.00;2.20;;;24.90;44.20;;;;;;4440787;32;20142;-82
2021/06/02 09:28:54;;;;;;;3.72;2.37;;;25.00;42.70;;;;;;4441915;32;20448;-79
2021/06/02 09:31:22;;;;;;;3.83;2.17;;;25.40;41.20;;;;;;4439623;32;20197;-80
2021/06/02 09:33:49;;;;;;;5.22;2.00;;;25.80;40.10;;;;;;4440742;32;20139;-80
2021/06/02 09:36:16;;;;;;;6.45;2.28;;;26.00;39.70;;;;;;4439546;32;20166;-80
2021/06/02 09:38:54;;;;;;;5.93;2.28;;;26.00;39.80;;;;;;4441155;32;20482;-79
2021/06/02 09:41:21;;;;;;;4.07;2.20;;;25.70;41.30;;;;;;4441333;32;20535;-79
2021/06/02 09:43:48;;;;;;;7.15;2.17;;;25.40;40.50;;;;;;4439676;32;20143;-79
2021/06/02 09:46:16;;;;;;;3.12;1.98;;;25.30;40.10;;;;;;4441120;32;20131;-79
2021/06/02 09:48:59;;;;;;;4.50;2.00;;;25.10;41.10;;;;;;4439781;32;20495;-80
2021/06/02 09:51:38;;;;;;;4.25;2.00;;;25.20;39.80;;;;;;4439901;32;20173;-79
2021/06/02 09:54:08;;;;;;;4.62;2.20;;;25.20;40.40;;;;;;4446361;32;20485;-82
2021/06/02 09:56:44;;;;;;;3.25;2.10;;;24.80;41.30;;;;;;4454630;32;20134;-81
2021/06/02 09:59:13;;;;;;;5.93;2.10;;;24.70;42.70;;;;;;4455874;32;20407;-81
2021/06/02 10:02:01;;;;;;;4.20;2.30;;;24.90;42.40;;;;;;4454222;32;20146;-80
2021/06/02 10:04:34;;;;;;;2.78;2.03;;;25.30;41.90;;;;;;4454512;32;20150;-82
2021/06/02 10:07:03;;;;;;;3.95;2.28;;;25.40;39.60;;;;;;4452988;32;20154;-82
2021/06/02 10:09:33;;;;;;;3.70;2.22;;;24.90;40.70;;;;;;4450778;32;20173;-80
2021/06/02 10:12:07;;;;;;;10.65;3.55;;;24.50;41.60;;;;;;4449952;32;20192;-81
2021/06/02 10:14:40;;;;;;;7.85;2.80;;;25.20;41.60;;;;;;4450548;32;20154;-81
2021/06/02 10:17:24;;;;;;;6.22;2.47;;;25.50;40.40;;;;;;4450393;32;20726;-81
2021/06/02 10:19:56;;;;;;;6.40;2.00;;;26.20;41.40;;;;;;4449765;32;20193;-81
2021/06/02 10:22:28;;;;;;;2.42;2.17;;;26.70;39.10;;;;;;4452671;32;20225;-81
2021/06/02 10:25:00;;;;;;;4.78;2.25;;;27.30;38.00;;;;;;4454210;32;20139;-79
2021/06/02 10:27:28;;;;;;;3.45;2.25;;;28.00;38.90;;;;;;4454364;32;20170;-79
2021/06/02 10:29:55;;;;;;;4.90;2.20;;;27.80;37.00;;;;;;4454307;32;20134;-80
2021/06/02 10:32:23;;;;;;;2.97;2.12;;;27.80;36.10;;;;;;4455970;32;20201;-80
2021/06/02 10:34:53;;;;;;;5.40;2.30;;;27.40;36.30;;;;;;4454571;32;20127;-81
2021/06/02 10:37:23;;;;;;;2.60;1.80;;;27.10;36.50;;;;;;4454062;32;20158;-80
2021/06/02 10:40:05;;;;;;;4.57;2.05;;;27.10;37.40;;;;;;4455333;32;20130;-80
2021/06/02 10:42:40;;;;;;;5.80;2.35;;;27.30;36.60;;;;;;4455134;32;20157;-80
2021/06/02 10:45:27;;;;;;;4.85;2.20;;;27.70;36.60;;;;;;4454257;32;20205;-79
2021/06/02 10:48:02;;;;;;;3.33;2.20;;;27.70;36.90;;;;;;4456241;32;20164;-80
2021/06/02 10:50:32;;;;;;;5.87;2.20;;;28.00;35.90;;;;;;4459105;32;20161;-79
2021/06/02 10:53:00;;;;;;;4.70;2.08;;;28.70;36.60;;;;;;4457396;32;20146;-80
2021/06/02 10:55:39;;;;;;;5.72;2.10;;;28.80;34.50;;;;;;4456839;32;20150;-79
2021/06/02 10:58:18;;;;;;;3.92;2.17;;;28.10;36.60;;;;;;4457079;32;20150;-79
2021/06/02 11:00:47;;;;;;;4.43;2.33;;;27.50;36.30;;;;;;4456742;32;20138;-80
2021/06/02 11:03:17;;;;;;;4.47;2.20;;;27.40;37.00;;;;;;4456663;32;20480;-79
2021/06/02 11:05:44;;;;;;;5.62;2.45;;;27.60;37.10;;;;;;4457441;32;20134;-79
2021/06/02 11:08:11;;;;;;;4.20;2.20;;;27.40;38.10;;;;;;4457304;32;20193;-79
2021/06/02 11:10:38;;;;;;;3.05;2.05;;;27.50;36.10;;;;;;4457190;32;20149;-79
2021/06/02 11:13:06;;;;;;;2.70;2.10;;;27.60;36.60;;;;;;4458701;32;20141;-80
2021/06/02 11:15:48;;;;;;;2.85;2.30;;;27.70;36.70;;;;;;4457748;32;20187;-79
2021/06/02 11:18:20;;;;;;;2.97;2.20;;;27.60;37.60;;;;;;4458221;32;20473;-80
2021/06/02 11:20:52;;;;;;;3.87;2.20;;;27.60;36.00;;;;;;4456774;32;20241;-79
2021/06/02 11:23:21;;;;;;;3.40;2.20;;;28.10;35.40;;;;;;4457654;32;20153;-79
2021/06/02 11:25:49;;;;;;;8.32;2.20;;;28.40;34.60;;;;;;4457027;32;20187;-79
2021/06/02 11:28:40;;;;;;;2.45;2.05;;;28.50;34.00;;;;;;4458560;32;20479;-79
2021/06/02 11:31:26;;;;;;;6.60;1.92;;;29.00;34.50;;;;;;4457010;32;20191;-80
2021/06/02 11:34:26;;;;;;;4.72;2.10;;;29.20;33.40;;;;;;4457028;32;20153;-81
2021/06/02 11:37:03;;;;;;;3.10;1.95;;;29.50;31.40;;;;;;4457786;32;20173;-80
2021/06/02 11:39:30;;;;;;;3.35;1.95;;;30.10;32.00;;;;;;4456973;32;20138;-79
2021/06/02 11:41:58;;;;;;;4.70;2.12;;;30.40;32.30;;;;;;4457179;32;20503;-80
2021/06/02 11:44:30;;;;;;;4.60;2.10;;;31.00;32.30;;;;;;4457489;32;20141;-79
2021/06/02 11:46:57;;;;;;;4.90;1.95;;;30.60;31.90;;;;;;4457029;32;20174;-78
2021/06/02 11:49:32;;;;;;;2.70;1.87;;;29.90;32.80;;;;;;4456500;32;20172;-80
2021/06/02 11:52:26;;;;;;;4.72;2.10;;;29.40;33.50;;;;;;4457006;32;20141;-81
2021/06/02 11:55:09;;;;;;;4.07;1.90;;;28.40;33.30;;;;;;4454785;32;20222;-79
2021/06/02 11:57:39;;;;;;;4.12;2.10;;;27.40;34.60;;;;;;4456555;32;20153;-79
2021/06/02 12:00:11;;;;;;;5.00;2.20;;;27.20;35.30;;;;;;4456097;32;20212;-79
2021/06/02 12:02:39;;;;;;;4.80;2.47;;;27.70;35.30;;;;;;4456206;32;20186;-79
2021/06/02 12:05:28;;;;;;;3.37;2.05;;;28.60;34.80;;;;;;4457513;32;20150;-79
2021/06/02 12:08:08;;;;;;;2.58;1.83;;;29.30;34.10;;;;;;4456106;32;20242;-77
2021/06/02 12:10:34;;;;;;;4.28;2.00;;;30.00;32.30;;;;;;4458548;32;20408;-78
2021/06/02 12:13:04;;;;;;;4.35;2.00;;;30.70;31.40;;;;;;4456231;32;20432;-78
2021/06/02 12:15:59;;;;;;;4.07;1.90;;;31.40;30.50;;;;;;4456980;32;20141;-78
2021/06/02 12:18:35;;;;;;;3.60;1.90;;;31.50;29.10;;;;;;4455440;32;20178;-77
2021/06/02 12:21:08;;;;;;;3.17;1.83;;;30.50;31.00;;;;;;4457700;32;20201;-77
2021/06/02 12:23:44;;;;;;;2.90;1.80;;;30.20;32.20;;;;;;4457570;32;20349;-77
2021/06/02 12:26:23;;;;;;;2.45;1.70;;;30.30;31.80;;;;;;4456518;32;20153;-78
2021/06/02 12:28:51;;;;;;;3.83;1.83;;;31.20;31.20;;;;;;4456002;32;20183;-78
2021/06/02 12:31:41;;;;;;;16.67;4.95;;;31.60;30.50;;;;;;4455902;32;20134;-78
2021/06/02 12:34:11;;;;;;;20.67;6.22;;;31.00;30.60;;;;;;4457365;32;20138;-77
2021/06/02 12:36:58;;;;;;;6.32;2.40;;;29.90;32.00;;;;;;4455851;32;20199;-78
2021/06/02 12:39:28;;;;;;;3.70;2.00;;;28.80;32.10;;;;;;4455820;32;20532;-79
2021/06/02 12:41:57;;;;;;;4.05;2.40;;;27.90;33.60;;;;;;4455509;32;20474;-77
2021/06/02 12:44:25;;;;;;;4.85;2.25;;;27.30;34.10;;;;;;4455658;32;20463;-78
2021/06/02 12:47:11;;;;;;;11.15;3.75;;;27.30;34.20;;;;;;4456021;32;20157;-78
2021/06/02 12:49:44;;;;;;;3.70;2.00;;;28.10;33.90;;;;;;4456645;32;20146;-78
2021/06/02 12:52:31;;;;;;;3.83;2.00;;;28.30;32.60;;;;;;4456985;32;20388;-79
2021/06/02 12:55:08;;;;;;;46.22;12.70;;;28.30;32.50;;;;;;4455762;32;20350;-79
2021/06/02 12:57:35;;;;;;;20.88;6.57;;;28.90;33.50;;;;;;4457146;32;20149;-79
2021/06/02 13:00:03;;;;;;;7.10;2.35;;;29.70;32.90;;;;;;4455659;32;20219;-78
2021/06/02 13:02:34;;;;;;;17.87;4.65;;;30.30;30.80;;;;;;4455594;32;20146;-78
2021/06/02 13:05:01;;;;;;;35.00;8.95;;;30.50;31.90;;;;;;4457571;32;20444;-79
2021/06/02 13:07:38;;;;;;;24.42;6.28;;;29.90;32.20;;;;;;4456955;32;20493;-80
2021/06/02 13:10:30;;;;;;;31.10;8.13;;;28.90;32.60;;;;;;4454872;32;20361;-78
2021/06/02 13:12:59;;;;;;;10.50;3.65;;;27.70;34.30;;;;;;4456958;32;20432;-79
2021/06/02 13:15:33;;;;;;;4.30;2.40;;;27.30;34.90;;;;;;4455402;32;20146;-80
2021/06/02 13:18:00;;;;;;;3.15;1.98;;;27.40;35.50;;;;;;4456125;32;20205;-78
2021/06/02 13:20:48;;;;;;;5.25;1.90;;;28.00;34.70;;;;;;4456159;32;20443;-80
2021/06/02 13:23:22;;;;;;;4.07;2.00;;;29.00;32.60;;;;;;4455861;32;20398;-79
2021/06/02 13:26:01;;;;;;;5.28;1.90;;;29.40;34.10;;;;;;4456808;32;20155;-79
2021/06/02 13:28:31;;;;;;;3.83;2.00;;;30.30;33.30;;;;;;4456388;32;20171;-79
2021/06/02 13:31:01;;;;;;;4.32;1.90;;;31.20;30.60;;;;;;4455544;32;20183;-79
2021/06/02 13:33:45;;;;;;;3.17;1.95;;;31.60;29.70;;;;;;4455263;32;20215;-78